Time;durP1;ratioP1;P1;durP2;ratioP2;P2;SDS_P1;SDS_P2;PMS_P1;PMS_P2;Temp;Humidity;BMP_temperature;BMP_pressure;BME280_temperature;BME280_humidity;BME280_pressure;Samples;Min_cycle;Max_cycle;Signal;HPM_P1;HPM_P2
2021/08/19 00:01:27;;;;;;;5.03;1.80;;;16.60;99.90;;;;;;5012662;28;20029;-77
2021/08/19 00:03:55;;;;;;;3.92;1.88;;;16.60;99.90;;;;;;5010992;28;20515;-82
2021/08/19 00:06:21;;;;;;;4.68;2.10;;;16.60;99.90;;;;;;5012135;28;20780;-77
2021/08/19 00:08:46;;;;;;;4.97;2.03;;;16.60;99.90;;;;;;5012310;28;20446;-82
2021/08/19 00:11:12;;;;;;;4.97;1.95;;;16.60;99.90;;;;;;5010556;28;20489;-82
2021/08/19 00:13:39;;;;;;;5.10;2.13;;;16.50;99.90;;;;;;5011360;28;20030;-77
2021/08/19 00:16:07;;;;;;;5.50;1.85;;;16.50;99.90;;;;;;5010649;28;20052;-77
2021/08/19 00:18:34;;;;;;;3.03;2.00;;;16.50;99.90;;;;;;5010863;28;20059;-78
2021/08/19 00:20:59;;;;;;;6.57;1.90;;;16.50;99.90;;;;;;5017359;28;20033;-77
2021/08/19 00:23:25;;;;;;;2.60;1.83;;;16.50;99.90;;;;;;5031741;28;20369;-82
2021/08/19 00:25:51;;;;;;;5.78;2.10;;;16.50;99.90;;;;;;5031653;28;20036;-82
2021/08/19 00:28:17;;;;;;;3.63;2.30;;;16.40;99.90;;;;;;5030100;28;20026;-77
2021/08/19 00:30:43;;;;;;;4.30;2.28;;;16.40;99.90;;;;;;5030454;28;20034;-77
2021/08/19 00:33:09;;;;;;;4.63;2.13;;;16.40;99.90;;;;;;5031406;28;20021;-82
2021/08/19 00:35:35;;;;;;;7.47;2.15;;;16.40;99.90;;;;;;5031385;28;20029;-82
2021/08/19 00:38:01;;;;;;;3.72;1.90;;;16.40;99.90;;;;;;5030476;28;20029;-82
2021/08/19 00:40:26;;;;;;;7.00;2.58;;;16.40;99.90;;;;;;5031344;28;20045;-77
2021/08/19 00:42:52;;;;;;;3.17;1.80;;;16.40;99.90;;;;;;5030200;28;20021;-77
2021/08/19 00:45:20;;;;;;;5.47;2.25;;;16.40;99.90;;;;;;5029786;28;20025;-77
2021/08/19 00:47:46;;;;;;;5.80;2.08;;;16.40;99.90;;;;;;5030842;28;20108;-77
2021/08/19 00:50:12;;;;;;;3.33;2.00;;;16.40;99.90;;;;;;5022242;28;20046;-81
2021/08/19 00:52:39;;;;;;;5.38;2.05;;;16.40;99.90;;;;;;5030474;28;20029;-77
2021/08/19 00:55:09;;;;;;;3.42;1.63;;;16.40;99.90;;;;;;5030094;28;20036;-82
2021/08/19 00:57:37;;;;;;;5.38;1.92;;;16.40;99.90;;;;;;5028114;28;20040;-77
2021/08/19 01:00:03;;;;;;;5.13;2.20;;;16.40;99.90;;;;;;5011538;28;20064;-77
2021/08/19 01:02:29;;;;;;;5.85;2.30;;;16.40;99.90;;;;;;5010007;28;20018;-77
2021/08/19 01:04:55;;;;;;;4.05;2.10;;;16.40;99.90;;;;;;5010095;28;20030;-78
2021/08/19 01:07:21;;;;;;;4.22;1.80;;;16.40;99.90;;;;;;5011064;28;20491;-82
2021/08/19 01:09:48;;;;;;;4.43;2.03;;;16.40;99.90;;;;;;5010675;28;20034;-77
2021/08/19 01:12:14;;;;;;;2.45;1.70;;;16.40;99.90;;;;;;5008900;28;20029;-83
2021/08/19 01:14:43;;;;;;;3.78;1.45;;;16.40;99.90;;;;;;5011064;28;20393;-77
2021/08/19 01:17:10;;;;;;;4.13;1.80;;;16.40;99.90;;;;;;5010935;28;20054;-77
2021/08/19 01:19:39;;;;;;;4.68;1.80;;;16.40;99.90;;;;;;5010163;28;20026;-77
2021/08/19 01:22:05;;;;;;;4.90;2.03;;;16.40;99.90;;;;;;5025062;28;20029;-77
2021/08/19 01:24:31;;;;;;;3.60;2.00;;;16.40;99.90;;;;;;5029508;28;20504;-77
2021/08/19 01:26:57;;;;;;;2.60;2.22;;;16.40;99.90;;;;;;5013948;28;20022;-83
2021/08/19 01:29:24;;;;;;;3.63;1.58;;;16.40;99.90;;;;;;5010010;28;20077;-83
2021/08/19 01:32:01;;;;;;;6.13;1.88;;;16.40;99.90;;;;;;5009921;28;20030;-82
2021/08/19 01:34:27;;;;;;;2.97;1.60;;;16.40;99.90;;;;;;5009766;28;20030;-82
2021/08/19 01:36:53;;;;;;;2.40;1.50;;;16.40;99.90;;;;;;5011012;28;20053;-82
2021/08/19 01:39:19;;;;;;;2.95;1.50;;;16.40;99.90;;;;;;5010983;28;20036;-77
2021/08/19 01:41:45;;;;;;;4.63;1.80;;;16.40;99.90;;;;;;5007120;28;20029;-77
2021/08/19 01:44:10;;;;;;;4.57;1.98;;;16.40;99.90;;;;;;5019105;28;20021;-77
2021/08/19 01:46:36;;;;;;;3.45;1.42;;;16.40;99.90;;;;;;5028703;28;20072;-77
2021/08/19 01:49:02;;;;;;;7.13;1.90;;;16.40;99.90;;;;;;5030220;28;20485;-83
2021/08/19 01:51:29;;;;;;;4.28;1.70;;;16.40;99.90;;;;;;5020502;28;20497;-77
2021/08/19 01:53:55;;;;;;;3.38;1.65;;;16.40;99.90;;;;;;5030433;28;20095;-77
2021/08/19 01:56:21;;;;;;;5.18;1.50;;;16.30;99.90;;;;;;5028744;28;20409;-77
2021/08/19 01:58:48;;;;;;;6.65;1.95;;;16.40;99.90;;;;;;5029062;28;20117;-77
2021/08/19 02:01:22;;;;;;;4.65;1.70;;;16.30;99.90;;;;;;5029532;28;20029;-82
2021/08/19 02:03:49;;;;;;;6.00;1.58;;;16.30;99.90;;;;;;5029715;28;20030;-82
2021/08/19 02:06:15;;;;;;;3.65;1.50;;;16.40;99.90;;;;;;5029472;28;20460;-82
2021/08/19 02:08:41;;;;;;;3.33;1.80;;;16.40;99.90;;;;;;5014593;28;20049;-77
2021/08/19 02:11:07;;;;;;;4.80;1.60;;;16.40;99.90;;;;;;5029444;28;20034;-77
2021/08/19 02:13:33;;;;;;;4.05;1.42;;;16.40;99.90;;;;;;5013115;28;20026;-77
2021/08/19 02:15:59;;;;;;;3.70;1.70;;;16.40;99.90;;;;;;5013903;28;20022;-77
2021/08/19 02:18:25;;;;;;;3.47;1.65;;;16.40;99.90;;;;;;5029154;28;20030;-77
2021/08/19 02:20:51;;;;;;;3.50;1.60;;;16.50;99.90;;;;;;5031535;28;20080;-77
2021/08/19 02:23:17;;;;;;;2.53;1.40;;;16.40;99.90;;;;;;5034018;28;20027;-77
2021/08/19 02:25:42;;;;;;;3.45;1.60;;;16.40;99.90;;;;;;5033873;28;20029;-77
2021/08/19 02:28:09;;;;;;;3.85;1.63;;;16.40;99.90;;;;;;5032911;28;20040;-77
2021/08/19 02:30:34;;;;;;;8.35;1.70;;;16.40;99.90;;;;;;5032574;28;20510;-82
2021/08/19 02:33:03;;;;;;;2.22;1.70;;;16.40;99.90;;;;;;5033975;28;20108;-77
2021/08/19 02:35:29;;;;;;;3.67;1.67;;;16.40;99.90;;;;;;5033759;28;20116;-77
2021/08/19 02:37:56;;;;;;;4.15;1.70;;;16.40;99.90;;;;;;5032811;28;20116;-77
2021/08/19 02:40:23;;;;;;;3.60;1.63;;;16.40;99.90;;;;;;5034095;28;20022;-77
2021/08/19 02:42:49;;;;;;;2.47;1.65;;;16.30;99.90;;;;;;5032651;28;20025;-77
2021/08/19 02:45:15;;;;;;;4.50;1.80;;;16.30;99.90;;;;;;5033873;28;20365;-77
2021/08/19 02:47:41;;;;;;;2.65;1.73;;;16.30;99.90;;;;;;5033551;28;20087;-82
2021/08/19 02:50:07;;;;;;;5.63;1.50;;;16.40;99.90;;;;;;5033619;28;20060;-82
2021/08/19 02:52:33;;;;;;;3.75;1.67;;;16.30;99.90;;;;;;5032038;28;20071;-77
2021/08/19 02:54:59;;;;;;;3.72;1.48;;;16.30;99.90;;;;;;5033392;28;20045;-77
2021/08/19 02:57:24;;;;;;;3.08;1.85;;;16.40;99.90;;;;;;5032467;28;20522;-77
2021/08/19 02:59:50;;;;;;;2.20;1.77;;;16.40;99.90;;;;;;5011784;28;20056;-81
2021/08/19 03:02:15;;;;;;;4.95;1.80;;;16.40;99.90;;;;;;5013674;28;20029;-77
2021/08/19 03:04:41;;;;;;;4.50;1.70;;;16.40;99.90;;;;;;5012548;28;20032;-77
2021/08/19 03:07:09;;;;;;;4.32;1.73;;;16.30;99.90;;;;;;5013254;28;20037;-77
2021/08/19 03:09:35;;;;;;;2.28;1.40;;;16.30;99.90;;;;;;5011059;28;20037;-77
2021/08/19 03:12:01;;;;;;;4.60;1.65;;;16.30;99.90;;;;;;5011941;28;20029;-82
2021/08/19 03:14:27;;;;;;;2.83;1.67;;;16.30;99.90;;;;;;5012394;28;20104;-77
2021/08/19 03:16:56;;;;;;;2.47;1.80;;;16.30;99.90;;;;;;5011788;28;20522;-82
2021/08/19 03:19:21;;;;;;;2.67;1.92;;;16.30;99.90;;;;;;5013694;28;20374;-77
2021/08/19 03:21:47;;;;;;;6.45;1.70;;;16.30;99.90;;;;;;5024265;28;20100;-82
2021/08/19 03:24:13;;;;;;;1.60;1.48;;;16.30;99.90;;;;;;5033673;28;20018;-77
2021/08/19 03:26:40;;;;;;;3.50;1.48;;;16.30;99.90;;;;;;5032447;28;20104;-77
2021/08/19 03:29:06;;;;;;;5.32;1.70;;;16.30;99.90;;;;;;5031569;28;20488;-77
2021/08/19 03:31:32;;;;;;;3.30;1.63;;;16.30;99.90;;;;;;5033315;28;20121;-77
2021/08/19 03:33:57;;;;;;;3.60;1.20;;;16.30;99.90;;;;;;5033199;28;20049;-77
2021/08/19 03:36:25;;;;;;;7.18;1.60;;;16.30;99.90;;;;;;5032340;28;20378;-82
2021/08/19 03:38:51;;;;;;;4.10;1.75;;;16.30;99.90;;;;;;5033300;28;20036;-82
2021/08/19 03:41:17;;;;;;;5.63;1.98;;;16.30;99.90;;;;;;5032658;28;20096;-78
2021/08/19 03:43:45;;;;;;;3.85;1.92;;;16.30;99.90;;;;;;5031307;28;20453;-77
2021/08/19 03:46:11;;;;;;;6.28;1.65;;;16.30;99.90;;;;;;5031960;28;20487;-77
2021/08/19 03:48:36;;;;;;;3.40;1.50;;;16.30;99.90;;;;;;5031147;28;20053;-77
2021/08/19 03:51:03;;;;;;;2.42;1.75;;;16.30;99.90;;;;;;5024124;28;20025;-77
2021/08/19 03:53:29;;;;;;;4.47;1.67;;;16.30;99.90;;;;;;5032430;28;20022;-77
2021/08/19 03:55:55;;;;;;;4.20;1.80;;;16.40;99.90;;;;;;5030958;28;20037;-77
2021/08/19 03:58:21;;;;;;;3.40;1.42;;;16.30;99.90;;;;;;5024546;28;20397;-82
2021/08/19 04:00:50;;;;;;;4.03;1.70;;;16.30;99.90;;;;;;5011120;28;20014;-82
2021/08/19 04:03:16;;;;;;;5.88;1.65;;;16.30;99.90;;;;;;5012647;28;20462;-77
2021/08/19 04:05:41;;;;;;;2.70;1.70;;;16.30;99.90;;;;;;5012137;28;20100;-81
2021/08/19 04:08:07;;;;;;;4.00;1.80;;;16.30;99.90;;;;;;5010989;28;20187;-77
2021/08/19 04:10:33;;;;;;;4.88;1.75;;;16.40;99.90;;;;;;5009048;28;20040;-77
2021/08/19 04:12:58;;;;;;;5.32;1.80;;;16.30;99.90;;;;;;5011255;28;20091;-82
2021/08/19 04:15:24;;;;;;;5.25;1.58;;;16.40;99.90;;;;;;5010360;28;20112;-77
2021/08/19 04:17:52;;;;;;;2.70;1.55;;;16.40;99.90;;;;;;5011852;28;20026;-77
2021/08/19 04:20:19;;;;;;;2.42;1.70;;;16.40;99.90;;;;;;5012009;28;20433;-77
2021/08/19 04:22:45;;;;;;;3.38;1.30;;;16.30;99.90;;;;;;5030058;28;20036;-83
2021/08/19 04:25:11;;;;;;;3.63;1.40;;;16.30;99.90;;;;;;5031611;28;20030;-82
2021/08/19 04:27:37;;;;;;;5.10;1.40;;;16.30;99.90;;;;;;5031280;28;20021;-77
2021/08/19 04:30:04;;;;;;;3.70;1.52;;;16.30;99.90;;;;;;5031462;28;20404;-82
2021/08/19 04:32:30;;;;;;;4.85;1.98;;;16.20;99.90;;;;;;5030760;28;20374;-77
2021/08/19 04:34:55;;;;;;;1.65;1.30;;;16.20;99.90;;;;;;5032130;28;20021;-82
2021/08/19 04:37:22;;;;;;;3.70;1.65;;;16.20;99.90;;;;;;5031254;28;20034;-77
2021/08/19 04:39:47;;;;;;;3.58;1.90;;;16.20;99.90;;;;;;5029832;28;20104;-77
2021/08/19 04:42:13;;;;;;;4.82;1.50;;;16.20;99.90;;;;;;5031090;28;20120;-77
2021/08/19 04:44:39;;;;;;;1.58;1.42;;;16.30;99.90;;;;;;5021661;28;20488;-80
2021/08/19 04:47:04;;;;;;;6.93;1.50;;;16.20;99.90;;;;;;5028665;28;20491;-82
2021/08/19 04:49:30;;;;;;;5.55;1.63;;;16.20;99.90;;;;;;5030702;28;20124;-77
2021/08/19 04:51:56;;;;;;;4.95;1.58;;;16.20;99.90;;;;;;5030036;28;20488;-82
2021/08/19 04:54:21;;;;;;;3.20;1.50;;;16.20;99.90;;;;;;5030677;28;20040;-77
2021/08/19 04:56:47;;;;;;;2.45;1.73;;;16.20;99.90;;;;;;5029358;28;20043;-77
2021/08/19 04:59:15;;;;;;;3.17;1.58;;;16.20;99.90;;;;;;5015331;28;20033;-77
2021/08/19 05:01:42;;;;;;;6.30;1.70;;;16.20;99.90;;;;;;5010235;28;20489;-82
2021/08/19 05:04:08;;;;;;;10.35;1.70;;;16.20;99.90;;;;;;5010498;28;20493;-77
2021/08/19 05:06:34;;;;;;;12.95;2.22;;;16.20;99.90;;;;;;5028851;28;20044;-77
2021/08/19 05:09:01;;;;;;;10.18;1.58;;;16.20;99.90;;;;;;5030202;28;20022;-77
2021/08/19 05:11:27;;;;;;;4.07;1.40;;;16.20;99.90;;;;;;5030705;28;20024;-77
2021/08/19 05:13:53;;;;;;;5.22;1.48;;;16.20;99.90;;;;;;5030739;28;20028;-82
2021/08/19 05:16:19;;;;;;;6.43;1.70;;;16.10;99.90;;;;;;5030504;28;20392;-82
2021/08/19 05:18:46;;;;;;;4.13;1.70;;;16.10;99.90;;;;;;5030989;28;20346;-77
2021/08/19 05:21:13;;;;;;;2.25;1.38;;;16.10;99.90;;;;;;5027950;28;20021;-81
2021/08/19 05:23:39;;;;;;;7.88;1.90;;;16.10;99.90;;;;;;5030481;28;20026;-82
2021/08/19 05:26:05;;;;;;;2.30;1.60;;;16.10;99.90;;;;;;5029636;28;20089;-78
2021/08/19 05:28:31;;;;;;;2.97;1.55;;;16.10;99.90;;;;;;5030507;28;20469;-79
2021/08/19 05:30:57;;;;;;;2.85;1.80;;;16.10;99.90;;;;;;5029428;28;20511;-83
2021/08/19 05:33:23;;;;;;;4.63;1.55;;;16.10;99.90;;;;;;5028604;28;20030;-78
2021/08/19 05:35:49;;;;;;;3.55;1.65;;;16.10;99.90;;;;;;5029816;28;20101;-78
2021/08/19 05:38:14;;;;;;;2.65;1.60;;;16.10;99.90;;;;;;5029651;28;20037;-77
2021/08/19 05:40:40;;;;;;;1.98;1.60;;;16.10;99.90;;;;;;5029497;28;20083;-78
2021/08/19 05:43:06;;;;;;;4.68;1.80;;;16.20;99.90;;;;;;5028084;28;20025;-81
2021/08/19 05:45:32;;;;;;;5.90;1.70;;;16.20;99.90;;;;;;5029059;28;20018;-78
2021/08/19 05:47:58;;;;;;;2.58;1.60;;;16.20;99.90;;;;;;5029695;28;20080;-82
2021/08/19 05:50:24;;;;;;;6.95;1.60;;;16.20;99.90;;;;;;5019649;28;20046;-78
2021/08/19 05:52:50;;;;;;;2.88;1.75;;;16.20;99.90;;;;;;5035593;28;20025;-77
2021/08/19 05:55:16;;;;;;;2.90;1.77;;;16.10;99.90;;;;;;5030937;28;20100;-78
2021/08/19 05:57:42;;;;;;;4.63;1.88;;;16.10;99.90;;;;;;5026939;28;20088;-82
2021/08/19 06:00:08;;;;;;;3.85;1.80;;;16.10;99.90;;;;;;5044315;28;20033;-77
2021/08/19 06:02:34;;;;;;;3.40;1.67;;;16.10;99.90;;;;;;5035347;28;20020;-77
2021/08/19 06:05:00;;;;;;;3.53;1.73;;;16.10;99.90;;;;;;5032683;28;20025;-82
2021/08/19 06:07:26;;;;;;;4.30;1.90;;;16.10;99.90;;;;;;5040267;28;20399;-77
2021/08/19 06:09:51;;;;;;;4.28;1.90;;;16.10;99.90;;;;;;5033909;28;20063;-77
2021/08/19 06:12:17;;;;;;;2.10;1.70;;;16.10;99.90;;;;;;5033428;28;20534;-85
2021/08/19 06:14:43;;;;;;;2.85;1.70;;;16.20;99.90;;;;;;5028846;28;20092;-82
2021/08/19 06:17:09;;;;;;;6.65;2.05;;;16.20;99.90;;;;;;5030102;28;20102;-77
2021/08/19 06:19:35;;;;;;;8.48;1.70;;;16.20;99.90;;;;;;5029606;28;20194;-82
2021/08/19 06:22:00;;;;;;;4.35;1.63;;;16.20;99.90;;;;;;5029149;28;20018;-84
2021/08/19 06:24:26;;;;;;;6.20;2.15;;;16.20;99.90;;;;;;5033236;28;20104;-84
2021/08/19 06:26:52;;;;;;;12.60;1.80;;;16.30;99.90;;;;;;5027944;28;20129;-85
2021/08/19 06:29:17;;;;;;;5.40;1.77;;;16.40;99.90;;;;;;5027381;28;20025;-83
2021/08/19 06:31:43;;;;;;;6.72;1.60;;;16.40;99.90;;;;;;5021766;28;20404;-77
2021/08/19 06:34:09;;;;;;;2.83;1.73;;;16.40;99.90;;;;;;5034440;28;20072;-81
2021/08/19 06:36:34;;;;;;;5.68;1.80;;;16.50;99.90;;;;;;5042827;28;20037;-76
2021/08/19 06:39:00;;;;;;;6.03;2.03;;;16.50;99.90;;;;;;5027249;28;20025;-76
2021/08/19 06:41:27;;;;;;;3.95;1.50;;;16.50;99.90;;;;;;5027446;28;20025;-81
2021/08/19 06:43:53;;;;;;;3.08;1.60;;;16.50;99.90;;;;;;5031029;28;20468;-76
2021/08/19 06:46:19;;;;;;;4.00;1.90;;;16.50;99.90;;;;;;5030840;28;20029;-76
2021/08/19 06:48:44;;;;;;;4.25;1.85;;;16.60;99.90;;;;;;5037386;28;20045;-80
2021/08/19 06:51:10;;;;;;;3.25;1.80;;;16.60;99.90;;;;;;5035094;28;20420;-76
2021/08/19 06:53:36;;;;;;;3.85;1.85;;;16.60;99.90;;;;;;5030855;28;20022;-80
2021/08/19 06:56:03;;;;;;;4.30;1.88;;;16.70;99.90;;;;;;5031239;28;20025;-76
2021/08/19 06:58:29;;;;;;;4.88;1.60;;;16.70;99.90;;;;;;5031698;28;20376;-79
2021/08/19 07:00:56;;;;;;;1.95;1.70;;;16.70;99.90;;;;;;5042455;28;20036;-79
2021/08/19 07:03:22;;;;;;;6.05;1.70;;;16.70;99.90;;;;;;5042789;28;20127;-74
2021/08/19 07:05:50;;;;;;;2.92;1.95;;;16.80;99.90;;;;;;5036780;28;20129;-75
2021/08/19 07:08:15;;;;;;;3.45;1.35;;;16.80;99.90;;;;;;5032041;28;20032;-79
2021/08/19 07:10:45;;;;;;;11.38;1.95;;;16.90;99.90;;;;;;5044883;28;20030;-75
2021/08/19 07:13:13;;;;;;;9.13;2.17;;;17.00;99.90;;;;;;5031203;28;20022;-79
2021/08/19 07:15:41;;;;;;;7.10;1.98;;;17.10;99.90;;;;;;5041864;28;20528;-73
2021/08/19 07:18:07;;;;;;;5.70;2.20;;;17.20;99.90;;;;;;5032899;28;20436;-83
2021/08/19 07:20:32;;;;;;;5.70;2.03;;;17.20;99.90;;;;;;5028467;28;20104;-81
2021/08/19 07:22:58;;;;;;;2.88;1.50;;;17.30;99.90;;;;;;5027598;28;20089;-80
2021/08/19 07:25:24;;;;;;;2.75;2.10;;;17.30;99.90;;;;;;5026802;28;20021;-80
2021/08/19 07:27:50;;;;;;;4.55;1.48;;;17.40;99.90;;;;;;5026291;28;20033;-80
2021/08/19 07:30:17;;;;;;;3.58;1.40;;;17.40;99.90;;;;;;5047683;28;20480;-80
2021/08/19 07:32:43;;;;;;;2.00;1.30;;;17.50;99.90;;;;;;5030821;28;20097;-78
2021/08/19 07:35:09;;;;;;;4.53;1.27;;;17.50;99.90;;;;;;5036574;28;20104;-77
2021/08/19 07:37:48;;;;;;;6.70;1.38;;;17.60;99.90;;;;;;5021289;28;20112;-84
2021/08/19 07:40:18;;;;;;;4.45;1.50;;;17.70;99.90;;;;;;5028704;28;20469;-82
2021/08/19 07:42:44;;;;;;;2.88;1.55;;;17.80;99.90;;;;;;5020670;28;20171;-82
2021/08/19 07:45:10;;;;;;;14.13;1.58;;;17.80;99.90;;;;;;5029072;28;20026;-81
2021/08/19 07:47:36;;;;;;;3.65;1.52;;;17.90;99.90;;;;;;5024830;28;20033;-79
2021/08/19 07:50:06;;;;;;;3.35;1.80;;;18.00;99.90;;;;;;5025365;28;20057;-79
2021/08/19 07:52:32;;;;;;;4.60;1.35;;;18.20;99.90;;;;;;5030668;28;20369;-81
2021/08/19 07:54:58;;;;;;;5.88;1.40;;;18.20;99.90;;;;;;5023590;28;20045;-80
2021/08/19 07:57:24;;;;;;;3.20;1.35;;;18.20;99.90;;;;;;5030081;28;20411;-78
2021/08/19 07:59:50;;;;;;;6.07;1.30;;;18.20;99.90;;;;;;5022259;28;20400;-78
2021/08/19 08:02:15;;;;;;;3.13;1.52;;;18.20;99.90;;;;;;5033056;28;20026;-78
2021/08/19 08:04:41;;;;;;;2.42;1.20;;;18.30;99.90;;;;;;5031232;28;20032;-80
2021/08/19 08:07:06;;;;;;;2.08;1.10;;;18.40;99.90;;;;;;5021926;28;20033;-81
2021/08/19 08:09:32;;;;;;;3.60;1.30;;;18.40;99.90;;;;;;5025236;28;20112;-81
2021/08/19 08:11:59;;;;;;;4.35;1.40;;;18.50;99.90;;;;;;5034308;28;20053;-79
2021/08/19 08:14:25;;;;;;;2.97;1.45;;;18.50;99.90;;;;;;5030598;28;20024;-80
2021/08/19 08:16:51;;;;;;;5.20;1.45;;;18.50;99.90;;;;;;5036224;28;20510;-80
2021/08/19 08:19:17;;;;;;;3.65;1.30;;;18.70;99.90;;;;;;5031196;28;20030;-78
2021/08/19 08:21:44;;;;;;;7.68;2.10;;;18.90;99.90;;;;;;5024303;28;20125;-80
2021/08/19 08:24:11;;;;;;;4.15;1.30;;;19.10;99.90;;;;;;5029561;28;20034;-82
2021/08/19 08:26:36;;;;;;;1.77;1.35;;;19.10;99.90;;;;;;5023777;28;20022;-83
2021/08/19 08:29:02;;;;;;;3.08;1.33;;;19.10;99.90;;;;;;5018115;28;20099;-80
2021/08/19 08:31:30;;;;;;;5.28;1.42;;;19.20;99.90;;;;;;5024536;28;20084;-80
2021/08/19 08:33:56;;;;;;;1.92;1.20;;;19.20;99.90;;;;;;5023251;28;20121;-79
2021/08/19 08:36:23;;;;;;;5.43;1.35;;;19.20;99.90;;;;;;5031172;28;20073;-79
2021/08/19 08:38:49;;;;;;;5.40;1.55;;;19.20;99.90;;;;;;5027452;28;20033;-79
2021/08/19 08:41:18;;;;;;;1.95;1.30;;;19.30;99.90;;;;;;5030945;28;20029;-79
2021/08/19 08:43:44;;;;;;;3.35;1.15;;;19.30;99.90;;;;;;5027914;28;20075;-79
2021/08/19 08:46:12;;;;;;;5.13;1.48;;;19.50;99.90;;;;;;5031020;28;20781;-79
2021/08/19 08:48:39;;;;;;;3.28;1.25;;;19.50;99.60;;;;;;5021993;28;20396;-81
2021/08/19 08:51:04;;;;;;;2.55;1.50;;;19.60;99.70;;;;;;5017682;28;20062;-81
2021/08/19 08:53:30;;;;;;;2.13;1.30;;;19.80;99.70;;;;;;5025107;28;20474;-81
2021/08/19 08:55:56;;;;;;;2.05;1.23;;;19.90;99.50;;;;;;5031025;28;20400;-81
2021/08/19 08:58:22;;;;;;;1.70;1.30;;;20.10;99.20;;;;;;5032118;28;20029;-79
2021/08/19 09:00:48;;;;;;;3.25;1.48;;;20.10;98.60;;;;;;5025807;28;20022;-80
2021/08/19 09:03:19;;;;;;;2.58;1.40;;;20.00;98.90;;;;;;5021733;28;20100;-83
2021/08/19 09:05:46;;;;;;;1.40;1.30;;;20.20;98.70;;;;;;5017291;28;20034;-83
2021/08/19 09:08:18;;;;;;;2.05;1.50;;;20.40;98.80;;;;;;5016275;28;20030;-82
2021/08/19 09:10:46;;;;;;;3.88;1.20;;;20.70;97.70;;;;;;5034023;28;20111;-81
2021/08/19 09:13:18;;;;;;;1.88;1.50;;;20.90;97.90;;;;;;5033113;28;20025;-79
2021/08/19 09:15:45;;;;;;;4.63;1.57;;;21.00;96.80;;;;;;5037319;28;20029;-81
2021/08/19 09:18:12;;;;;;;1.60;1.00;;;21.30;96.90;;;;;;5030941;28;20033;-80
2021/08/19 09:20:41;;;;;;;2.15;1.27;;;21.30;96.60;;;;;;5034344;28;20112;-81
2021/08/19 09:23:15;;;;;;;2.72;1.48;;;21.30;96.60;;;;;;5030051;28;20145;-81
2021/08/19 09:25:42;;;;;;;2.25;1.13;;;21.00;96.70;;;;;;5025818;28;20526;-79
2021/08/19 09:28:12;;;;;;;7.03;1.48;;;20.80;97.70;;;;;;5021287;28;20029;-81
2021/08/19 09:30:40;;;;;;;4.95;1.60;;;20.80;97.50;;;;;;5012620;28;20087;-79
2021/08/19 09:33:07;;;;;;;2.50;1.42;;;20.60;97.30;;;;;;5021434;28;20040;-80
2021/08/19 09:35:33;;;;;;;2.08;1.25;;;20.40;97.50;;;;;;5024383;28;20029;-81
2021/08/19 09:38:20;;;;;;;1.58;1.20;;;20.40;98.00;;;;;;5015832;28;20040;-80
2021/08/19 09:41:13;;;;;;;3.83;1.23;;;20.20;98.00;;;;;;5021181;28;20021;-79
2021/08/19 09:43:52;;;;;;;3.10;1.65;;;20.20;97.90;;;;;;5032990;28;20144;-81
2021/08/19 09:46:37;;;;;;;2.30;1.38;;;20.20;98.50;;;;;;5017069;28;20038;-79
2021/08/19 09:49:20;;;;;;;3.17;1.50;;;20.20;98.60;;;;;;5039186;28;20054;-82
2021/08/19 09:52:01;;;;;;;2.65;1.20;;;20.20;97.90;;;;;;5015941;28;20156;-78
2021/08/19 09:54:32;;;;;;;3.22;1.20;;;20.10;98.20;;;;;;5018841;28;20033;-80
2021/08/19 09:56:58;;;;;;;3.65;1.35;;;20.00;98.10;;;;;;5022619;28;20044;-79
2021/08/19 09:59:26;;;;;;;1.95;1.52;;;20.00;99.10;;;;;;5023780;28;20476;-79
2021/08/19 10:01:57;;;;;;;1.52;1.20;;;19.90;98.30;;;;;;5031092;28;20087;-78
2021/08/19 10:04:25;;;;;;;5.35;1.25;;;20.00;98.30;;;;;;5033076;28;20104;-80
2021/08/19 10:06:55;;;;;;;2.42;1.30;;;20.20;98.50;;;;;;5022155;28;20071;-80
2021/08/19 10:09:22;;;;;;;3.92;1.75;;;20.40;97.70;;;;;;5022887;28;20026;-80
2021/08/19 10:11:50;;;;;;;3.33;1.30;;;20.60;98.00;;;;;;5023920;28;20185;-81
2021/08/19 10:14:29;;;;;;;1.90;1.30;;;20.60;97.10;;;;;;5027674;28;20036;-81
2021/08/19 10:16:56;;;;;;;3.38;1.70;;;20.20;97.80;;;;;;5024564;28;20543;-80
2021/08/19 10:19:36;;;;;;;5.25;1.35;;;20.00;98.00;;;;;;5017175;28;20029;-80
2021/08/19 10:22:22;;;;;;;2.38;1.50;;;19.90;97.90;;;;;;5023681;28;20099;-81
2021/08/19 10:24:54;;;;;;;5.35;1.52;;;19.90;98.30;;;;;;5020467;28;20026;-81
2021/08/19 10:27:22;;;;;;;2.50;1.50;;;20.10;98.10;;;;;;5018710;28;20037;-80
2021/08/19 10:29:54;;;;;;;2.20;1.38;;;20.10;98.30;;;;;;5032757;28;20079;-80
2021/08/19 10:32:38;;;;;;;1.75;1.35;;;20.30;97.80;;;;;;5022275;28;20036;-79
2021/08/19 10:35:06;;;;;;;2.00;1.38;;;20.40;98.20;;;;;;5028801;28;20034;-79
2021/08/19 10:37:58;;;;;;;2.90;1.33;;;20.60;97.80;;;;;;5030760;28;20120;-80
2021/08/19 10:40:31;;;;;;;4.82;1.75;;;20.80;97.30;;;;;;5013903;28;20029;-79
2021/08/19 10:42:59;;;;;;;2.80;1.30;;;20.60;97.10;;;;;;5033990;28;20445;-79
2021/08/19 10:45:27;;;;;;;2.42;1.50;;;20.30;97.40;;;;;;5024248;28;20026;-80
2021/08/19 10:48:13;;;;;;;4.07;1.58;;;20.00;97.90;;;;;;5031846;28;20041;-80
2021/08/19 10:50:40;;;;;;;5.10;1.90;;;19.80;97.90;;;;;;5024324;28;20637;-80
2021/08/19 10:53:28;;;;;;;4.15;1.50;;;20.00;98.00;;;;;;5028878;28;20442;-79
2021/08/19 10:55:56;;;;;;;3.72;1.55;;;20.40;97.90;;;;;;5041809;28;20073;-79
2021/08/19 10:58:30;;;;;;;1.90;1.73;;;20.90;98.00;;;;;;5022315;28;20078;-80
2021/08/19 11:00:58;;;;;;;3.85;1.48;;;21.30;96.50;;;;;;5018567;28;20424;-81
2021/08/19 11:03:35;;;;;;;2.92;1.58;;;21.50;96.00;;;;;;5023550;28;20531;-77
2021/08/19 11:06:11;;;;;;;4.22;1.35;;;21.40;95.90;;;;;;5019901;28;20033;-77
2021/08/19 11:08:42;;;;;;;1.63;1.40;;;20.80;96.40;;;;;;5021602;28;20109;-80
2021/08/19 11:11:09;;;;;;;2.17;1.48;;;20.80;97.30;;;;;;5017843;28;20037;-80
2021/08/19 11:13:35;;;;;;;3.25;1.60;;;20.80;97.00;;;;;;5027683;28;20111;-80
2021/08/19 11:16:06;;;;;;;3.83;1.73;;;21.10;96.60;;;;;;5031072;28;20412;-80
2021/08/19 11:18:33;;;;;;;4.78;1.50;;;21.50;96.10;;;;;;5027358;28;20032;-79
2021/08/19 11:21:00;;;;;;;3.65;1.70;;;21.80;95.90;;;;;;5023902;28;20021;-79
2021/08/19 11:23:31;;;;;;;3.65;1.48;;;21.80;95.40;;;;;;5025748;28;20489;-79
2021/08/19 11:26:11;;;;;;;3.25;1.70;;;21.60;95.60;;;;;;5029835;28;20021;-78
2021/08/19 11:28:48;;;;;;;1.85;1.30;;;22.00;95.60;;;;;;5022678;28;20493;-79
2021/08/19 11:31:19;;;;;;;5.47;1.60;;;22.50;95.00;;;;;;5015768;28;20103;-79
2021/08/19 11:33:46;;;;;;;2.72;1.65;;;22.90;94.60;;;;;;5018099;28;20022;-79
2021/08/19 11:36:13;;;;;;;3.90;1.55;;;23.10;94.10;;;;;;5028632;28;20366;-79
2021/08/19 11:38:41;;;;;;;6.18;1.60;;;23.10;93.90;;;;;;5033057;28;20533;-78
2021/08/19 11:41:21;;;;;;;5.22;1.70;;;23.00;93.70;;;;;;5026432;28;20025;-78
2021/08/19 11:43:48;;;;;;;2.35;1.40;;;22.40;93.10;;;;;;5032290;28;20395;-78
2021/08/19 11:46:24;;;;;;;2.90;1.70;;;22.40;94.00;;;;;;5029161;28;20761;-78
2021/08/19 11:48:52;;;;;;;6.28;1.60;;;22.00;94.20;;;;;;5027938;28;20060;-78
2021/08/19 11:51:43;;;;;;;2.78;1.70;;;21.90;94.50;;;;;;5026075;28;20095;-78
2021/08/19 11:54:15;;;;;;;1.80;1.30;;;21.90;94.20;;;;;;5021800;28;20419;-78
2021/08/19 11:56:46;;;;;;;2.22;1.42;;;21.60;94.30;;;;;;5027222;28;20491;-78
2021/08/19 11:59:14;;;;;;;1.77;1.55;;;21.60;94.10;;;;;;5021070;28;20068;-77
2021/08/19 12:01:50;;;;;;;5.50;1.80;;;21.50;95.00;;;;;;5025432;28;20048;-80
2021/08/19 12:04:28;;;;;;;3.03;1.67;;;21.10;95.40;;;;;;5035812;28;20128;-78
2021/08/19 12:06:57;;;;;;;2.83;1.70;;;21.30;95.00;;;;;;5051065;28;20024;-80
2021/08/19 12:09:24;;;;;;;2.47;1.40;;;21.50;94.20;;;;;;5040514;28;20014;-79
2021/08/19 12:11:51;;;;;;;4.75;1.40;;;21.60;93.90;;;;;;5045111;28;20029;-79
2021/08/19 12:14:24;;;;;;;2.72;1.40;;;21.60;93.70;;;;;;5039508;28;20033;-79
2021/08/19 12:16:52;;;;;;;2.50;1.45;;;21.80;93.70;;;;;;5038766;28;20044;-79
2021/08/19 12:19:22;;;;;;;1.40;1.30;;;22.20;93.30;;;;;;5038490;28;20049;-79
2021/08/19 12:21:48;;;;;;;2.40;1.65;;;22.00;92.80;;;;;;5028276;28;20439;-80
2021/08/19 12:24:36;;;;;;;1.98;1.45;;;22.40;92.90;;;;;;5033929;28;20103;-80
2021/08/19 12:27:20;;;;;;;3.65;1.52;;;22.60;93.10;;;;;;5015965;28;20047;-79
2021/08/19 12:29:49;;;;;;;4.47;1.50;;;23.00;93.20;;;;;;5046021;28;20047;-80
2021/08/19 12:32:32;;;;;;;4.57;1.50;;;23.10;93.50;;;;;;5033412;28;20511;-80
2021/08/19 12:35:07;;;;;;;3.40;1.77;;;23.00;93.20;;;;;;5048135;28;20115;-79
2021/08/19 12:37:35;;;;;;;3.22;1.35;;;23.10;93.40;;;;;;5038575;28;20083;-81
2021/08/19 12:40:11;;;;;;;6.13;1.13;;;22.70;92.00;;;;;;5039274;28;20096;-79
2021/08/19 12:42:39;;;;;;;3.17;1.20;;;22.30;92.30;;;;;;5028057;28;20075;-79
2021/08/19 12:45:10;;;;;;;1.88;1.48;;;22.30;92.70;;;;;;5028827;28;20025;-79
2021/08/19 12:47:56;;;;;;;4.63;1.60;;;22.60;93.60;;;;;;5028761;28;20140;-80
2021/08/19 12:50:22;;;;;;;3.50;1.80;;;22.70;92.40;;;;;;5033129;28;20053;-78